Time;durP1;ratioP1;P1;durP2;ratioP2;P2;SDS_P1;SDS_P2;PMS_P1;PMS_P2;Temp;Humidity;BMP_temperature;BMP_pressure;BME280_temperature;BME280_humidity;BME280_pressure;Samples;Min_cycle;Max_cycle;Signal;HPM_P1;HPM_P2
2023/02/16 00:00:18;;;;;;;2.03;1.67;;;2.00;98.70;;;;;;5069581;28;20206;-68
2023/02/16 00:02:46;;;;;;;1.23;1.10;;;1.90;98.60;;;;;;5065325;28;20196;-67
2023/02/16 00:05:22;;;;;;;3.65;2.58;;;2.00;98.70;;;;;;5050295;28;20206;-67
2023/02/16 00:07:49;;;;;;;1.95;1.85;;;1.90;98.60;;;;;;5050522;28;20663;-67
2023/02/16 00:10:16;;;;;;;1.45;1.35;;;1.90;98.70;;;;;;5034529;28;20216;-68
2023/02/16 00:15:27;;;;;;;1.60;1.50;;;1.90;98.70;;;;;;5049672;28;20223;-67
2023/02/16 00:17:57;;;;;;;2.92;1.92;;;1.90;98.70;;;;;;5048449;28;20699;-67
2023/02/16 00:20:24;;;;;;;1.20;1.20;;;1.90;98.70;;;;;;5045425;28;20703;-67
2023/02/16 00:22:51;;;;;;;1.45;1.38;;;2.00;98.70;;;;;;5029846;28;20217;-68
2023/02/16 00:25:18;;;;;;;4.60;4.05;;;1.30;99.90;;;;;;5030107;28;20642;-67
2023/02/16 00:27:45;;;;;;;5.30;4.35;;;1.90;98.80;;;;;;5031419;28;20872;-67
2023/02/16 00:30:14;;;;;;;1.83;1.33;;;1.90;98.70;;;;;;5029859;28;20231;-67
2023/02/16 00:32:41;;;;;;;2.85;1.90;;;1.90;98.60;;;;;;5037766;28;20269;-67
2023/02/16 00:35:14;;;;;;;4.35;3.03;;;1.90;98.70;;;;;;5049837;28;20196;-67
2023/02/16 00:37:41;;;;;;;2.80;2.35;;;1.90;98.60;;;;;;5048093;28;20216;-67
2023/02/16 00:40:08;;;;;;;3.28;2.90;;;1.90;98.70;;;;;;5058843;28;20195;-67
2023/02/16 00:42:36;;;;;;;3.83;1.50;;;2.00;98.80;;;;;;5056355;28;20196;-68
2023/02/16 00:45:04;;;;;;;1.60;1.50;;;1.90;98.60;;;;;;5029741;28;20204;-67
2023/02/16 00:47:36;;;;;;;3.40;2.22;;;1.90;98.70;;;;;;5030197;28;20208;-67
2023/02/16 00:50:04;;;;;;;1.90;1.80;;;1.90;98.70;;;;;;5048806;28;20227;-67
2023/02/16 00:52:36;;;;;;;1.95;1.83;;;1.80;98.80;;;;;;5048428;28;20203;-67
2023/02/16 00:55:06;;;;;;;1.90;1.80;;;1.80;98.80;;;;;;5048567;28;20208;-67
2023/02/16 00:57:36;;;;;;;1.73;1.63;;;2.00;99.90;;;;;;5049313;28;20214;-67
2023/02/16 01:00:07;;;;;;;1.58;1.50;;;1.80;98.60;;;;;;5029121;28;20204;-67
2023/02/16 01:02:34;;;;;;;7.80;3.67;;;1.70;99.90;;;;;;5037633;28;20197;-67
2023/02/16 01:05:01;;;;;;;2.17;1.52;;;1.70;98.90;;;;;;5049611;28;20620;-68
2023/02/16 01:12:58;;;;;;;2.67;2.53;;;1.60;99.00;;;;;;5037245;28;20204;-67
2023/02/16 01:15:26;;;;;;;0.85;0.85;;;1.70;99.00;;;;;;5048498;28;20228;-67
2023/02/16 01:17:53;;;;;;;1.67;1.58;;;1.60;99.00;;;;;;5043058;28;20205;-67
2023/02/16 01:20:22;;;;;;;1.67;1.55;;;1.70;99.20;;;;;;5028872;28;20197;-67
2023/02/16 01:22:48;;;;;;;1.52;1.42;;;1.60;99.10;;;;;;5034092;28;20196;-67
2023/02/16 01:25:17;;;;;;;1.48;1.38;;;1.50;99.90;;;;;;5048795;28;20218;-67
2023/02/16 01:27:45;;;;;;;2.03;1.50;;;1.50;99.00;;;;;;5048256;28;20204;-67
2023/02/16 01:30:13;;;;;;;1.30;1.20;;;1.50;99.10;;;;;;5048789;28;20238;-67
2023/02/16 01:32:40;;;;;;;3.00;1.95;;;1.50;99.10;;;;;;5039294;28;20212;-67
2023/02/16 01:35:09;;;;;;;3.08;2.88;;;1.40;99.20;;;;;;5028753;28;20322;-67
2023/02/16 01:37:36;;;;;;;1.08;1.00;;;1.40;99.20;;;;;;5046509;28;20611;-67
2023/02/16 01:40:04;;;;;;;4.78;2.78;;;1.40;99.20;;;;;;5056464;28;20199;-67
2023/02/16 01:42:41;;;;;;;2.92;2.10;;;1.50;99.90;;;;;;5061535;28;20726;-67
2023/02/16 01:45:13;;;;;;;4.50;4.10;;;1.40;99.20;;;;;;5039067;28;20219;-67
2023/02/16 01:47:44;;;;;;;2.25;2.05;;;1.50;99.50;;;;;;5028898;28;20211;-68
2023/02/16 01:50:17;;;;;;;1.60;1.50;;;1.60;99.30;;;;;;5027964;28;20228;-67
2023/02/16 01:52:50;;;;;;;2.05;1.95;;;1.60;99.10;;;;;;5038059;28;20208;-67
2023/02/16 01:55:21;;;;;;;3.38;2.85;;;1.60;99.10;;;;;;5028314;28;20223;-67
2023/02/16 01:57:53;;;;;;;2.42;1.30;;;1.60;99.40;;;;;;5043710;28;20210;-67
2023/02/16 02:00:27;;;;;;;5.43;3.53;;;1.60;99.10;;;;;;5067686;28;20202;-67
2023/02/16 02:05:33;;;;;;;1.73;1.63;;;1.60;99.10;;;;;;5059140;28;20211;-67
2023/02/16 02:05:43;;;;;;;2.75;1.80;;;1.70;99.90;;;;;;5046648;28;20235;-67
2023/02/16 02:08:16;;;;;;;3.50;2.58;;;1.50;99.00;;;;;;5048039;28;20200;-67
2023/02/16 02:10:54;;;;;;;2.03;1.83;;;1.70;99.20;;;;;;5047905;28;20305;-68
2023/02/16 02:13:31;;;;;;;1.08;0.95;;;1.70;99.10;;;;;;5034426;28;20306;-67
2023/02/16 02:15:59;;;;;;;12.27;2.78;;;1.70;99.10;;;;;;5028089;28;20238;-67
2023/02/16 02:18:27;;;;;;;1.95;1.77;;;1.60;99.20;;;;;;5028012;28;20211;-67
2023/02/16 02:24:23;;;;;;;2.35;1.75;;;1.50;99.00;;;;;;5019567;28;20255;-67
2023/02/16 02:27:07;;;;;;;3.92;1.98;;;1.40;99.10;;;;;;5027607;28;20772;-67
2023/02/16 02:29:58;;;;;;;2.70;2.60;;;1.40;99.10;;;;;;5045239;28;20203;-67
2023/02/16 02:32:36;;;;;;;0.68;0.68;;;1.40;99.10;;;;;;5042799;28;20240;-68
2023/02/16 02:35:21;;;;;;;2.97;1.88;;;1.40;99.30;;;;;;5042133;28;20195;-67
2023/02/16 02:37:57;;;;;;;1.75;1.65;;;1.50;99.20;;;;;;5045640;28;20752;-67
2023/02/16 02:40:36;;;;;;;1.27;1.17;;;1.50;99.10;;;;;;5057668;28;20237;-68
2023/02/16 02:43:14;;;;;;;3.60;1.50;;;1.50;99.00;;;;;;5053533;28;20235;-67
2023/02/16 02:45:46;;;;;;;0.65;0.65;;;1.50;99.00;;;;;;5047122;28;20219;-68
2023/02/16 02:48:13;;;;;;;2.03;0.90;;;1.40;98.90;;;;;;5040839;28;20192;-67
2023/02/16 02:53:49;;;;;;;0.98;0.88;;;1.30;99.10;;;;;;5046743;28;20624;-67
2023/02/16 03:02:17;;;;;;;1.17;1.10;;;1.20;98.90;;;;;;5047053;28;20219;-67
2023/02/16 03:04:46;;;;;;;1.48;1.38;;;1.10;99.00;;;;;;5033048;28;20200;-68
2023/02/16 03:07:14;;;;;;;2.72;1.92;;;1.10;99.10;;;;;;5027138;28;20649;-67
2023/02/16 03:09:41;;;;;;;4.00;1.52;;;1.10;99.20;;;;;;5037051;28;20254;-67
2023/02/16 03:15:05;;;;;;;0.80;0.80;;;1.10;99.20;;;;;;5007996;28;20980;-67
2023/02/16 03:31:33;;;;;;;1.95;1.33;;;1.10;99.10;;;;;;5031143;28;20228;-68
2023/02/16 03:34:00;;;;;;;0.93;0.93;;;1.00;99.00;;;;;;5049527;28;20818;-68
2023/02/16 03:36:30;;;;;;;1.63;1.63;;;1.10;99.10;;;;;;5050399;28;20325;-68
2023/02/16 03:38:58;;;;;;;1.20;1.10;;;1.10;99.90;;;;;;5050135;28;20200;-68
2023/02/16 03:41:26;;;;;;;1.95;1.83;;;1.40;99.50;;;;;;5051183;28;20226;-68
2023/02/16 03:43:54;;;;;;;2.67;1.45;;;1.00;99.50;;;;;;5049918;28;20192;-67
2023/02/16 03:46:21;;;;;;;1.35;1.15;;;1.00;99.40;;;;;;5031473;28;20216;-67
2023/02/16 03:48:51;;;;;;;1.55;1.55;;;1.00;99.40;;;;;;5041880;28;20200;-68
2023/02/16 03:51:19;;;;;;;1.10;1.00;;;0.90;99.40;;;;;;5049817;28;20234;-67
2023/02/16 03:53:46;;;;;;;1.45;1.35;;;0.90;99.50;;;;;;5049819;28;20729;-68
2023/02/16 03:56:13;;;;;;;6.00;2.10;;;1.00;99.60;;;;;;5050472;28;20216;-68
2023/02/16 03:58:41;;;;;;;2.25;1.20;;;1.00;99.60;;;;;;5050814;28;20200;-68
2023/02/16 04:01:08;;;;;;;2.17;2.08;;;1.00;99.50;;;;;;5050271;28;20224;-68
2023/02/16 04:03:36;;;;;;;1.40;1.30;;;1.00;99.60;;;;;;5044819;28;20228;-68
2023/02/16 04:06:05;;;;;;;1.30;1.23;;;1.10;99.70;;;;;;5030285;28;20323;-68
2023/02/16 04:08:32;;;;;;;2.17;1.20;;;1.10;99.70;;;;;;5030389;28;20558;-68
2023/02/16 04:10:59;;;;;;;1.00;0.90;;;1.10;99.60;;;;;;5030144;28;20386;-68
2023/02/16 04:13:26;;;;;;;0.63;0.63;;;1.10;99.60;;;;;;5043432;28;20196;-69
2023/02/16 04:15:52;;;;;;;3.38;3.13;;;1.10;99.70;;;;;;5050122;28;20224;-68
2023/02/16 04:18:19;;;;;;;0.85;0.85;;;1.10;99.60;;;;;;5043340;28;20212;-68
2023/02/16 04:20:46;;;;;;;2.05;1.33;;;1.10;99.70;;;;;;5030065;28;20742;-68
2023/02/16 04:23:14;;;;;;;3.15;1.73;;;1.00;99.50;;;;;;5030418;28;20223;-68
2023/02/16 04:25:41;;;;;;;2.25;1.30;;;1.00;99.50;;;;;;5049606;28;20224;-68
2023/02/16 04:28:07;;;;;;;2.28;2.17;;;0.90;99.40;;;;;;5043529;28;20197;-68
2023/02/16 04:30:34;;;;;;;2.00;1.90;;;1.00;99.60;;;;;;5029967;28;20236;-68
2023/02/16 04:33:01;;;;;;;1.10;1.10;;;0.90;99.60;;;;;;5046155;28;20265;-68
2023/02/16 04:35:28;;;;;;;2.42;1.45;;;0.90;99.60;;;;;;5049493;28;20702;-68
2023/02/16 04:37:55;;;;;;;1.75;1.65;;;0.90;99.60;;;;;;5049679;28;20697;-68
2023/02/16 04:40:23;;;;;;;0.88;0.88;;;0.90;99.60;;;;;;5060564;28;20889;-68
2023/02/16 04:42:49;;;;;;;2.65;1.35;;;0.90;99.60;;;;;;5054217;28;20210;-68
2023/02/16 04:45:16;;;;;;;2.78;2.40;;;0.90;99.60;;;;;;5031759;28;20208;-68
2023/02/16 04:47:43;;;;;;;2.22;2.13;;;0.80;99.50;;;;;;5029504;28;20197;-68
2023/02/16 04:50:11;;;;;;;3.55;1.27;;;0.80;99.60;;;;;;5048978;28;20208;-68
2023/02/16 04:52:40;;;;;;;2.38;1.33;;;0.80;99.70;;;;;;5048890;28;20283;-67
2023/02/16 04:55:09;;;;;;;2.13;1.15;;;0.80;99.60;;;;;;5049182;28;20204;-68
2023/02/16 04:57:37;;;;;;;3.13;2.25;;;0.70;99.50;;;;;;5049516;28;20239;-68
2023/02/16 05:00:05;;;;;;;1.05;1.02;;;0.70;99.60;;;;;;5048326;28;20279;-68
2023/02/16 05:02:32;;;;;;;1.95;1.63;;;0.70;99.80;;;;;;5041199;28;20209;-67
2023/02/16 05:04:59;;;;;;;1.35;1.02;;;0.70;99.80;;;;;;5029470;28;20315;-68
2023/02/16 05:07:26;;;;;;;1.60;1.55;;;0.70;99.90;;;;;;5041435;28;20220;-68
2023/02/16 05:09:53;;;;;;;2.25;2.15;;;0.70;99.90;;;;;;5048856;28;20323;-67
2023/02/16 05:15:06;;;;;;;0.77;0.77;;;0.60;99.90;;;;;;5045955;28;20607;-68
2023/02/16 05:17:33;;;;;;;0.45;0.40;;;0.60;99.80;;;;;;5029301;28;20208;-67
2023/02/16 05:20:01;;;;;;;0.65;0.65;;;0.60;99.90;;;;;;5028753;28;20209;-68
2023/02/16 05:22:32;;;;;;;6.70;1.50;;;0.60;99.80;;;;;;5033085;28;20871;-68
2023/02/16 05:24:59;;;;;;;2.97;2.70;;;0.60;99.80;;;;;;5048632;28;20211;-67
2023/02/16 05:27:28;;;;;;;2.35;2.25;;;0.60;99.80;;;;;;5047228;28;20314;-68
2023/02/16 05:29:55;;;;;;;3.83;1.67;;;0.50;99.80;;;;;;5047111;28;20207;-68
2023/02/16 05:32:23;;;;;;;1.85;1.65;;;0.50;99.90;;;;;;5036821;28;20235;-68
2023/02/16 05:34:49;;;;;;;7.47;3.30;;;0.50;99.90;;;;;;5028217;28;20215;-67
2023/02/16 05:37:18;;;;;;;1.25;1.20;;;0.40;99.90;;;;;;5043105;28;20232;-66
2023/02/16 05:39:46;;;;;;;3.05;1.77;;;0.60;99.90;;;;;;5053738;28;20199;-66
2023/02/16 05:42:13;;;;;;;2.10;1.75;;;0.60;99.90;;;;;;5064702;28;20234;-68
2023/02/16 05:44:40;;;;;;;1.67;1.58;;;0.60;99.90;;;;;;5047656;28;20495;-68
2023/02/16 05:47:06;;;;;;;2.13;1.85;;;0.60;99.90;;;;;;5048750;28;20223;-66
2023/02/16 05:49:35;;;;;;;2.58;2.38;;;0.60;99.90;;;;;;5032367;28;21006;-66
2023/02/16 05:52:01;;;;;;;1.15;1.08;;;0.50;99.90;;;;;;5036283;28;20267;-67
2023/02/16 05:54:28;;;;;;;2.15;0.80;;;0.40;99.90;;;;;;5029983;28;20679;-67
2023/02/16 05:56:55;;;;;;;1.90;1.80;;;0.50;99.90;;;;;;5028351;28;20274;-66
2023/02/16 05:59:22;;;;;;;2.38;2.20;;;0.50;99.90;;;;;;5045945;28;20211;-66
2023/02/16 06:01:49;;;;;;;1.85;1.75;;;0.70;99.90;;;;;;5047258;28;20231;-67
2023/02/16 06:04:16;;;;;;;3.60;2.33;;;0.60;99.90;;;;;;5033390;28;20197;-67
2023/02/16 06:06:44;;;;;;;1.55;1.45;;;0.60;99.90;;;;;;5031387;28;20237;-66
2023/02/16 06:09:11;;;;;;;1.00;1.00;;;0.60;99.90;;;;;;5045858;28;20204;-66
2023/02/16 06:11:38;;;;;;;3.60;1.55;;;0.50;99.90;;;;;;5045402;28;20239;-66
2023/02/16 06:14:09;;;;;;;2.80;1.50;;;0.50;99.90;;;;;;5036472;28;20192;-66
2023/02/16 06:16:37;;;;;;;1.40;1.40;;;0.50;99.90;;;;;;5035105;28;20221;-67
2023/02/16 06:19:05;;;;;;;1.50;1.50;;;0.30;99.90;;;;;;5033064;28;20892;-67
2023/02/16 06:21:33;;;;;;;3.58;2.03;;;0.00;99.90;;;;;;5043649;28;20886;-66
2023/02/16 06:24:01;;;;;;;2.55;1.75;;;-0.10;99.90;;;;;;5029790;28;20766;-67
2023/02/16 06:26:28;;;;;;;1.20;1.20;;;0.50;99.90;;;;;;5025949;28;20320;-68
2023/02/16 06:28:55;;;;;;;2.70;1.42;;;0.50;99.90;;;;;;5042912;28;20196;-66
2023/02/16 06:31:22;;;;;;;1.38;1.27;;;0.40;99.90;;;;;;5045773;28;20267;-66
2023/02/16 06:33:49;;;;;;;2.30;2.15;;;0.50;99.90;;;;;;5034371;28;20279;-66
2023/02/16 06:36:16;;;;;;;2.20;1.83;;;0.60;99.90;;;;;;5046634;28;20220;-66
2023/02/16 06:38:43;;;;;;;2.13;2.03;;;0.60;99.90;;;;;;5033812;28;20212;-66
2023/02/16 06:41:12;;;;;;;3.05;2.15;;;0.50;99.90;;;;;;5036920;28;20269;-67
2023/02/16 06:43:39;;;;;;;4.07;3.80;;;0.50;99.90;;;;;;5029480;28;20202;-66
2023/02/16 06:46:05;;;;;;;1.58;1.48;;;0.50;99.90;;;;;;5029565;28;20527;-66
2023/02/16 06:48:32;;;;;;;0.90;0.90;;;0.50;99.90;;;;;;5033672;28;20618;-67
2023/02/16 06:50:59;;;;;;;1.20;1.20;;;0.50;99.90;;;;;;5028349;28;20330;-66
2023/02/16 06:53:26;;;;;;;3.70;2.00;;;0.50;99.90;;;;;;5035978;28;20294;-66
2023/02/16 06:55:53;;;;;;;2.53;1.80;;;0.60;99.90;;;;;;5046628;28;20224;-66
2023/02/16 06:58:21;;;;;;;1.05;1.05;;;0.60;99.90;;;;;;5048552;28;20199;-66
2023/02/16 07:00:47;;;;;;;0.93;0.90;;;1.20;99.90;;;;;;5035734;28;20604;-67
2023/02/16 07:03:14;;;;;;;1.42;1.33;;;0.50;99.90;;;;;;5038974;28;20223;-66
2023/02/16 07:05:42;;;;;;;1.30;1.30;;;0.60;99.90;;;;;;5046415;28;20230;-66
2023/02/16 07:08:09;;;;;;;2.38;2.08;;;0.70;99.90;;;;;;5043267;28;20978;-66
2023/02/16 07:10:36;;;;;;;0.73;0.73;;;0.70;99.90;;;;;;5026645;28;20232;-67
2023/02/16 07:13:03;;;;;;;1.02;0.93;;;0.70;99.90;;;;;;5039392;28;20562;-66
2023/02/16 07:15:31;;;;;;;2.10;1.90;;;0.70;99.90;;;;;;5044914;28;20255;-66
2023/02/16 07:17:58;;;;;;;4.90;2.17;;;0.60;99.90;;;;;;5044740;28;20200;-66
2023/02/16 07:20:26;;;;;;;1.05;0.98;;;0.70;99.90;;;;;;5027054;28;20220;-66
2023/02/16 07:22:53;;;;;;;1.67;1.58;;;0.80;99.90;;;;;;5033774;28;20234;-66
2023/02/16 07:25:19;;;;;;;3.03;1.85;;;0.90;99.90;;;;;;5035378;28;20193;-65
2023/02/16 07:27:46;;;;;;;2.25;2.15;;;0.90;99.90;;;;;;5032571;28;20195;-66
2023/02/16 07:30:15;;;;;;;1.70;1.58;;;1.10;99.90;;;;;;5025534;28;21301;-66
2023/02/16 07:32:43;;;;;;;2.60;2.10;;;1.00;99.90;;;;;;5045080;28;20711;-65
2023/02/16 07:35:10;;;;;;;1.05;1.05;;;1.10;99.90;;;;;;5046597;28;20283;-66
2023/02/16 07:37:37;;;;;;;2.15;1.90;;;1.20;99.90;;;;;;5040910;28;20295;-66
2023/02/16 07:40:04;;;;;;;6.38;1.73;;;1.30;99.90;;;;;;5051682;28;20199;-66
2023/02/16 07:42:31;;;;;;;1.95;1.75;;;1.60;99.90;;;;;;5042879;28;20740;-67
2023/02/16 07:44:58;;;;;;;2.33;2.08;;;1.50;99.90;;;;;;5034702;28;20693;-66
2023/02/16 07:47:25;;;;;;;3.72;3.47;;;1.60;99.90;;;;;;5028002;28;20216;-66
2023/02/16 07:49:53;;;;;;;2.28;2.20;;;1.70;99.90;;;;;;5044275;28;20207;-68
2023/02/16 07:52:20;;;;;;;1.85;1.73;;;1.80;99.90;;;;;;5027218;28;20235;-66
2023/02/16 07:54:46;;;;;;;1.45;1.40;;;2.00;99.90;;;;;;5027281;28;20705;-67
2023/02/16 07:57:13;;;;;;;1.92;1.83;;;2.00;99.90;;;;;;5041662;28;20577;-66
2023/02/16 07:59:40;;;;;;;2.05;1.83;;;2.20;99.90;;;;;;5043420;28;20209;-68
2023/02/16 08:02:14;;;;;;;2.72;1.52;;;2.20;99.90;;;;;;5032908;28;20717;-66
2023/02/16 08:04:41;;;;;;;2.08;1.90;;;2.40;99.90;;;;;;5049609;28;20196;-67
2023/02/16 08:07:11;;;;;;;2.50;1.60;;;2.50;99.90;;;;;;5044821;28;20324;-66
2023/02/16 08:09:38;;;;;;;3.17;2.10;;;2.60;99.90;;;;;;5043956;28;20196;-66
2023/02/16 08:12:07;;;;;;;0.93;0.93;;;2.70;99.90;;;;;;5046326;28;20772;-66
2023/02/16 08:14:34;;;;;;;2.72;1.73;;;2.80;99.90;;;;;;5047953;28;20685;-66
2023/02/16 08:17:01;;;;;;;1.85;1.63;;;2.90;99.90;;;;;;5048273;28;20250;-66
2023/02/16 08:19:28;;;;;;;2.17;1.98;;;3.00;99.90;;;;;;5048399;28;20306;-67
2023/02/16 08:21:55;;;;;;;5.57;3.25;;;3.30;99.90;;;;;;5043611;28;20267;-67
2023/02/16 08:24:24;;;;;;;6.60;3.50;;;3.30;99.90;;;;;;5029417;28;20192;-67
2023/02/16 08:26:52;;;;;;;1.48;1.30;;;3.60;99.90;;;;;;5036740;28;20239;-66
2023/02/16 08:29:20;;;;;;;2.10;2.00;;;3.60;99.90;;;;;;5045370;28;20265;-66
2023/02/16 08:31:47;;;;;;;4.05;1.40;;;3.80;99.90;;;;;;5036864;28;20228;-66
2023/02/16 08:34:15;;;;;;;5.88;2.45;;;3.90;99.50;;;;;;5046184;28;20200;-66
2023/02/16 08:36:44;;;;;;;3.72;3.40;;;4.00;99.30;;;;;;5039931;28;20631;-67
2023/02/16 08:39:16;;;;;;;2.55;2.15;;;4.20;99.90;;;;;;5042979;28;20240;-66
2023/02/16 08:41:46;;;;;;;7.70;4.25;;;4.30;99.00;;;;;;5057682;28;20327;-66
2023/02/16 08:44:15;;;;;;;5.47;4.80;;;4.40;98.80;;;;;;5040495;28;20203;-66
2023/02/16 08:46:44;;;;;;;11.18;4.03;;;4.70;98.30;;;;;;5040346;28;20228;-67
2023/02/16 08:49:13;;;;;;;3.78;1.98;;;4.60;98.40;;;;;;5033694;28;20685;-66
2023/02/16 08:51:45;;;;;;;4.03;2.38;;;4.80;98.40;;;;;;5037738;28;20282;-66
2023/02/16 08:54:16;;;;;;;7.20;2.90;;;5.40;99.90;;;;;;5031655;28;20279;-66
2023/02/16 08:56:46;;;;;;;4.38;2.33;;;5.00;98.00;;;;;;5034504;28;20228;-66
2023/02/16 08:59:14;;;;;;;2.45;2.00;;;5.10;98.20;;;;;;5047912;28;20283;-66
2023/02/16 09:01:41;;;;;;;6.20;3.70;;;5.30;99.90;;;;;;5048450;28;20228;-67
2023/02/16 09:04:08;;;;;;;4.30;2.60;;;5.40;98.30;;;;;;5045253;28;20193;-66
2023/02/16 09:06:37;;;;;;;2.30;2.10;;;5.50;98.20;;;;;;5029319;28;20232;-66
2023/02/16 09:09:05;;;;;;;2.85;2.65;;;5.70;97.70;;;;;;5036862;28;20287;-66
2023/02/16 09:11:31;;;;;;;3.33;3.03;;;5.90;97.30;;;;;;5038672;28;20238;-66
2023/02/16 09:14:00;;;;;;;2.45;2.03;;;6.20;95.90;;;;;;5030734;28;20229;-66
2023/02/16 09:16:27;;;;;;;2.55;2.38;;;7.10;99.90;;;;;;5028055;28;20338;-66
2023/02/16 09:18:56;;;;;;;3.70;2.03;;;6.90;98.60;;;;;;5042128;28;20208;-67
2023/02/16 09:21:25;;;;;;;5.55;2.60;;;7.20;97.30;;;;;;5032249;28;20298;-66
2023/02/16 09:23:56;;;;;;;1.60;1.50;;;7.10;93.20;;;;;;5043813;28;20668;-66
2023/02/16 09:26:24;;;;;;;5.00;3.80;;;7.30;92.90;;;;;;5048668;28;20228;-66
2023/02/16 09:28:52;;;;;;;4.00;2.45;;;7.40;92.70;;;;;;5029962;28;20287;-66
2023/02/16 09:31:25;;;;;;;3.83;2.20;;;7.40;92.40;;;;;;5028246;28;20630;-66
2023/02/16 09:33:55;;;;;;;3.75;2.95;;;7.90;98.70;;;;;;5034419;28;20676;-66
2023/02/16 09:36:23;;;;;;;6.55;3.38;;;7.90;92.00;;;;;;5047505;28;20224;-67
2023/02/16 09:38:50;;;;;;;2.50;2.40;;;8.00;91.70;;;;;;5035293;28;20299;-67
2023/02/16 09:41:25;;;;;;;4.30;2.13;;;8.10;93.10;;;;;;5056614;28;20753;-68
2023/02/16 09:43:57;;;;;;;2.07;1.87;;;8.20;95.80;;;;;;5047793;28;20637;-67
2023/02/16 09:46:28;;;;;;;3.80;3.03;;;8.20;90.00;;;;;;5028171;28;20671;-66
2023/02/16 09:48:55;;;;;;;2.80;2.60;;;8.40;90.00;;;;;;5038620;28;20625;-66
2023/02/16 09:51:27;;;;;;;10.17;2.93;;;8.50;89.20;;;;;;5047325;28;20654;-66
2023/02/16 09:53:59;;;;;;;3.80;2.07;;;8.50;91.70;;;;;;5041382;28;20673;-67
2023/02/16 09:56:31;;;;;;;3.07;2.27;;;8.60;88.60;;;;;;5029015;28;20659;-67
2023/02/16 09:59:04;;;;;;;4.20;2.07;;;8.60;88.60;;;;;;5045606;28;20631;-66
2023/02/16 10:01:40;;;;;;;2.10;1.90;;;8.70;87.80;;;;;;5045822;28;20680;-66
2023/02/16 10:04:27;;;;;;;2.73;1.97;;;8.70;87.10;;;;;;5027357;28;20722;-67
2023/02/16 10:07:05;;;;;;;3.20;1.63;;;8.80;95.50;;;;;;5046423;28;20666;-66
2023/02/16 10:09:34;;;;;;;7.50;3.10;;;8.80;84.00;;;;;;5046546;28;21017;-67
2023/02/16 10:12:06;;;;;;;2.87;2.67;;;8.90;85.40;;;;;;5043634;28;20712;-67
2023/02/16 10:14:40;;;;;;;3.60;2.47;;;8.90;93.00;;;;;;5028441;28;20635;-67
2023/02/16 10:17:17;;;;;;;8.80;3.17;;;9.10;86.00;;;;;;5031688;28;20654;-67
2023/02/16 10:19:48;;;;;;;2.37;2.17;;;9.20;84.30;;;;;;5044971;28;20692;-67
2023/02/16 10:22:20;;;;;;;3.47;3.03;;;9.30;83.80;;;;;;5046789;28;20761;-67
2023/02/16 10:24:57;;;;;;;4.57;4.17;;;9.10;85.60;;;;;;5046758;28;20692;-67
2023/02/16 10:27:27;;;;;;;2.87;1.70;;;9.10;86.20;;;;;;5041658;28;20725;-66
2023/02/16 10:29:54;;;;;;;5.47;3.03;;;9.10;85.90;;;;;;5045575;28;20877;-67
2023/02/16 10:32:29;;;;;;;7.30;2.33;;;9.20;84.50;;;;;;5039363;28;20673;-66
2023/02/16 10:35:09;;;;;;;7.50;2.53;;;9.30;83.90;;;;;;5047230;28;20981;-66
2023/02/16 10:37:48;;;;;;;2.73;2.50;;;9.50;89.30;;;;;;5039366;28;20746;-67
2023/02/16 10:40:23;;;;;;;2.73;2.30;;;9.30;82.70;;;;;;5038082;28;20619;-66
2023/02/16 10:42:55;;;;;;;3.30;2.43;;;9.50;81.80;;;;;;5034860;28;21074;-67
2023/02/16 10:45:27;;;;;;;4.93;2.80;;;9.50;93.30;;;;;;5028043;28;20632;-66
2023/02/16 10:47:55;;;;;;;3.43;2.10;;;9.60;82.20;;;;;;5039465;28;20630;-67
2023/02/16 10:50:27;;;;;;;2.33;2.13;;;9.60;83.50;;;;;;5045668;28;20629;-66
2023/02/16 10:52:58;;;;;;;2.43;2.23;;;10.10;92.50;;;;;;5042065;28;20670;-68
2023/02/16 10:55:25;;;;;;;1.40;1.30;;;9.70;82.50;;;;;;5026774;28;21096;-66
2023/02/16 10:57:56;;;;;;;2.57;1.67;;;9.70;93.20;;;;;;5031365;28;21016;-66
2023/02/16 11:00:33;;;;;;;1.33;1.03;;;9.80;82.10;;;;;;5044248;28;20733;-67
2023/02/16 11:03:03;;;;;;;3.93;1.60;;;9.90;81.40;;;;;;5033146;28;20631;-67
2023/02/16 11:05:34;;;;;;;4.67;2.60;;;9.90;82.20;;;;;;5046208;28;20645;-67
2023/02/16 11:08:02;;;;;;;4.18;3.13;;;10.00;80.00;;;;;;5037485;28;20760;-68
2023/02/16 11:10:39;;;;;;;2.37;2.10;;;10.00;86.10;;;;;;5043886;28;20311;-66
2023/02/16 11:13:07;;;;;;;2.77;2.57;;;10.20;91.80;;;;;;5029932;28;21277;-66
2023/02/16 11:15:37;;;;;;;4.00;2.63;;;10.20;80.10;;;;;;5026073;28;20627;-67
2023/02/16 11:18:08;;;;;;;1.93;1.30;;;10.20;93.50;;;;;;5034846;28;20627;-67
2023/02/16 11:20:51;;;;;;;2.40;2.20;;;10.20;94.10;;;;;;5026738;28;20697;-66
2023/02/16 11:23:23;;;;;;;2.47;2.10;;;10.40;79.20;;;;;;5027870;28;20734;-68
2023/02/16 11:25:59;;;;;;;1.40;1.40;;;10.50;77.30;;;;;;5046680;28;20705;-67
2023/02/16 11:28:28;;;;;;;3.53;1.77;;;10.50;77.20;;;;;;5043519;28;20636;-67
2023/02/16 11:31:03;;;;;;;1.60;1.50;;;10.70;82.30;;;;;;5036180;28;21040;-67
2023/02/16 11:33:33;;;;;;;3.30;2.00;;;10.90;87.70;;;;;;5041728;28;20654;-66
2023/02/16 11:36:04;;;;;;;2.47;2.27;;;11.10;88.70;;;;;;5046141;28;21330;-66
2023/02/16 11:38:33;;;;;;;2.23;2.00;;;11.10;93.60;;;;;;5048794;28;20670;-67
2023/02/16 11:41:02;;;;;;;3.97;3.03;;;11.20;93.30;;;;;;5048269;28;20653;-67
2023/02/16 11:43:32;;;;;;;4.00;2.37;;;11.30;74.50;;;;;;5049775;28;20614;-67
2023/02/16 11:46:02;;;;;;;1.70;1.60;;;11.20;74.60;;;;;;5033544;28;20650;-66
2023/02/16 11:48:32;;;;;;;2.50;2.30;;;11.10;91.30;;;;;;5043727;28;20630;-66
2023/02/16 11:51:01;;;;;;;3.50;2.20;;;11.30;73.00;;;;;;5052456;28;21612;-66
2023/02/16 11:53:30;;;;;;;2.83;2.23;;;11.30;71.50;;;;;;5063015;28;20661;-68
2023/02/16 11:56:26;;;;;;;3.83;2.80;;;11.40;73.70;;;;;;5040058;28;20992;-67
2023/02/16 11:59:14;;;;;;;7.83;1.50;;;11.40;89.50;;;;;;5036968;28;20633;-67
2023/02/16 12:02:06;;;;;;;3.67;1.83;;;11.40;73.20;;;;;;5030787;28;20647;-67
2023/02/16 12:04:58;;;;;;;3.60;2.63;;;11.60;72.20;;;;;;5037787;28;20998;-67
2023/02/16 12:07:32;;;;;;;1.27;1.20;;;11.50;73.20;;;;;;5043165;28;20685;-67
2023/02/16 12:10:07;;;;;;;4.73;2.67;;;11.70;70.70;;;;;;5047301;28;20632;-66
2023/02/16 12:12:46;;;;;;;1.43;1.33;;;11.80;72.60;;;;;;5049293;28;21178;-67
2023/02/16 12:15:21;;;;;;;2.53;2.33;;;12.00;71.80;;;;;;5049843;28;20626;-67
2023/02/16 12:18:02;;;;;;;1.13;1.10;;;12.10;91.70;;;;;;5043915;28;20710;-67
2023/02/16 12:20:47;;;;;;;1.63;1.43;;;12.00;74.00;;;;;;5049340;28;20993;-67
2023/02/16 12:23:29;;;;;;;1.90;1.70;;;12.00;73.80;;;;;;5043983;28;20634;-66
2023/02/16 12:26:09;;;;;;;2.23;1.60;;;12.60;90.50;;;;;;5048855;28;20788;-66
2023/02/16 12:28:44;;;;;;;1.17;1.07;;;12.40;70.40;;;;;;5048072;28;20630;-67
2023/02/16 12:31:27;;;;;;;3.03;1.60;;;12.50;69.70;;;;;;5049243;28;21286;-67
2023/02/16 12:34:02;;;;;;;2.00;1.80;;;12.80;70.10;;;;;;5048877;28;21318;-67
2023/02/16 12:36:45;;;;;;;4.23;2.20;;;12.30;84.30;;;;;;5045934;28;20641;-67
2023/02/16 12:39:18;;;;;;;2.30;2.10;;;12.50;71.10;;;;;;5043546;28;20726;-67
2023/02/16 12:42:02;;;;;;;1.60;1.47;;;12.50;72.30;;;;;;5033208;28;21125;-67
2023/02/16 12:44:35;;;;;;;1.13;1.00;;;12.70;70.00;;;;;;5035071;28;20634;-66
2023/02/16 12:47:04;;;;;;;3.40;1.73;;;12.80;72.20;;;;;;5030395;28;21009;-66
2023/02/16 12:49:44;;;;;;;3.67;2.77;;;12.80;72.00;;;;;;5047737;28;21199;-67
2023/02/16 12:52:27;;;;;;;1.50;1.20;;;13.00;72.80;;;;;;5048296;28;20657;-67
2023/02/16 12:54:59;;;;;;;2.17;1.97;;;13.00;71.90;;;;;;5028292;28;20663;-68
2023/02/16 12:57:28;;;;;;;2.23;2.10;;;13.30;76.30;;;;;;5040239;28;20712;-67
2023/02/16 13:00:02;;;;;;;1.90;1.03;;;13.00;70.30;;;;;;5041189;28;20977;-67
2023/02/16 13:02:36;;;;;;;1.30;1.20;;;13.10;69.40;;;;;;5042377;28;20699;-68
2023/02/16 13:05:09;;;;;;;1.70;1.60;;;13.20;69.90;;;;;;5031091;28;20624;-67
2023/02/16 13:07:40;;;;;;;1.47;1.37;;;12.80;81.10;;;;;;5035369;28;20619;-67
2023/02/16 13:10:16;;;;;;;1.33;1.20;;;12.90;71.00;;;;;;5037336;28;20634;-67
2023/02/16 13:12:49;;;;;;;2.37;2.07;;;13.00;85.00;;;;;;5037131;28;20644;-67
2023/02/16 13:15:20;;;;;;;2.73;1.70;;;13.20;86.40;;;;;;5034675;28;20670;-67
2023/02/16 13:17:50;;;;;;;1.57;1.20;;;13.00;71.20;;;;;;5044820;28;20626;-68
2023/02/16 13:20:19;;;;;;;1.30;1.20;;;13.00;90.50;;;;;;5048127;28;20630;-67
2023/02/16 13:23:19;;;;;;;2.53;1.83;;;12.90;71.40;;;;;;5047938;28;20633;-67
2023/02/16 13:26:12;;;;;;;2.90;2.67;;;13.20;70.50;;;;;;5047605;28;21109;-67
2023/02/16 13:28:58;;;;;;;1.80;1.27;;;13.20;70.70;;;;;;5046645;28;20729;-67
2023/02/16 13:31:38;;;;;;;1.47;1.37;;;13.20;71.00;;;;;;5033101;28;20654;-68
2023/02/16 13:34:18;;;;;;;1.60;1.50;;;13.10;70.90;;;;;;5033447;28;20662;-67
2023/02/16 13:37:09;;;;;;;2.60;2.10;;;13.30;68.40;;;;;;5042301;28;20690;-67
2023/02/16 13:39:56;;;;;;;1.40;1.30;;;13.50;68.50;;;;;;5042941;28;20660;-67
2023/02/16 13:42:45;;;;;;;2.30;1.87;;;13.50;69.70;;;;;;5035252;28;20660;-67
2023/02/16 13:45:16;;;;;;;2.00;1.40;;;13.60;70.40;;;;;;5046909;28;20731;-67
2023/02/16 13:47:43;;;;;;;2.00;1.00;;;13.70;69.20;;;;;;5039086;28;20619;-67
2023/02/16 13:50:26;;;;;;;1.77;1.20;;;13.90;69.80;;;;;;5027318;28;20957;-67
2023/02/16 13:52:55;;;;;;;1.57;1.47;;;13.90;70.30;;;;;;5043920;28;20626;-67